Time;durP1;ratioP1;P1;durP2;ratioP2;P2;SDS_P1;SDS_P2;PMS_P1;PMS_P2;Temp;Humidity;BMP_temperature;BMP_pressure;BME280_temperature;BME280_humidity;BME280_pressure;Samples;Min_cycle;Max_cycle;Signal;HPM_P1;HPM_P2
2021/10/12 00:02:01;;;;;;;;;3.00;2.75;;;;;21.65;44.39;102380.59;5015663;28;51169;-50
2021/10/12 00:04:26;;;;;;;;;5.00;4.25;;;;;21.66;44.80;102375.94;4999985;28;51298;-51
2021/10/12 00:06:52;;;;;;;;;5.00;5.00;;;;;21.66;44.56;102374.03;5008966;28;51681;-47
2021/10/12 00:09:19;;;;;;;;;2.25;2.25;;;;;21.65;44.71;102380.59;5006120;28;51150;-48
2021/10/12 00:11:44;;;;;;;;;3.00;3.00;;;;;21.65;44.18;102379.75;5007124;28;51232;-46
2021/10/12 00:14:10;;;;;;;;;3.25;3.25;;;;;21.64;44.42;102376.13;4997361;28;51098;-44
2021/10/12 00:16:35;;;;;;;;;3.00;2.50;;;;;21.65;44.82;102390.78;5008686;28;52039;-51
2021/10/12 00:19:00;;;;;;;;;2.00;2.00;;;;;21.62;44.93;102375.47;4979589;28;51053;-51
2021/10/12 00:21:26;;;;;;;;;5.25;4.00;;;;;21.62;44.65;102372.72;4996039;28;51157;-45
2021/10/12 00:23:51;;;;;;;;;3.75;3.75;;;;;21.62;44.56;102372.72;4995178;28;51154;-50
2021/10/12 00:26:16;;;;;;;;;3.25;1.25;;;;;21.61;44.58;102371.03;5001957;28;51742;-51
2021/10/12 00:28:42;;;;;;;;;2.00;2.00;;;;;21.61;44.53;102393.09;4995950;28;51177;-50
2021/10/12 00:31:07;;;;;;;;;5.00;4.00;;;;;21.61;44.96;102384.81;4996727;28;51233;-47
2021/10/12 00:33:32;;;;;;;;;3.50;3.00;;;;;21.61;44.39;102373.78;4996100;28;50952;-48
2021/10/12 00:35:58;;;;;;;;;4.00;3.00;;;;;21.59;44.92;102360.19;5002315;28;51064;-47
2021/10/12 00:38:24;;;;;;;;;4.25;3.00;;;;;21.60;44.99;102372.94;5005180;28;51085;-47
2021/10/12 00:40:50;;;;;;;;;3.50;3.00;;;;;21.60;44.78;102374.81;5013665;28;51270;-44
2021/10/12 00:43:17;;;;;;;;;4.00;3.00;;;;;21.60;44.82;102370.16;5014443;28;51328;-51
2021/10/12 00:45:43;;;;;;;;;5.50;4.00;;;;;21.59;44.52;102367.59;5008601;28;51379;-50
2021/10/12 00:48:09;;;;;;;;;4.00;3.50;;;;;21.57;44.97;102362.28;5002828;28;51304;-47
2021/10/12 00:50:37;;;;;;;;;3.00;3.00;;;;;21.58;45.02;102363.16;4985131;28;51326;-51
2021/10/12 00:53:03;;;;;;;;;3.00;2.25;;;;;21.57;44.97;102344.88;4995743;28;51032;-50
2021/10/12 00:55:29;;;;;;;;;3.00;3.00;;;;;21.56;44.97;102344.00;4998452;28;51196;-52
2021/10/12 00:57:54;;;;;;;;;2.25;2.00;;;;;21.55;44.94;102341.44;5002551;28;51128;-49
2021/10/12 01:00:20;;;;;;;;;3.25;3.00;;;;;21.56;44.53;102344.00;4995426;28;51176;-50
2021/10/12 01:02:45;;;;;;;;;7.50;4.00;;;;;21.55;44.86;102342.31;5011932;28;51039;-52
2021/10/12 01:05:11;;;;;;;;;4.25;3.25;;;;;21.55;44.96;102339.53;5008693;28;52450;-51
2021/10/12 01:07:36;;;;;;;;;3.00;3.00;;;;;21.54;44.62;102332.31;5012149;28;51148;-48
2021/10/12 01:10:06;;;;;;;;;3.50;3.00;;;;;21.54;44.61;102332.31;5015002;28;51297;-48
2021/10/12 01:12:32;;;;;;;;;3.00;3.00;;;;;21.54;44.90;102329.56;5015012;28;51405;-48
2021/10/12 01:14:58;;;;;;;;;3.25;3.25;;;;;21.54;44.54;102325.97;5011315;28;51841;-49
2021/10/12 01:17:24;;;;;;;;;4.50;2.75;;;;;21.53;44.64;102325.09;4997177;28;51129;-50
2021/10/12 01:19:49;;;;;;;;;2.00;2.00;;;;;21.53;45.05;102319.59;5005708;28;51056;-48
2021/10/12 01:22:15;;;;;;;;;2.75;2.75;;;;;21.53;44.88;102327.84;5009573;28;50927;-52
2021/10/12 01:24:40;;;;;;;;;1.75;1.75;;;;;21.53;44.62;102324.25;5000343;28;51256;-50
2021/10/12 01:27:06;;;;;;;;;3.00;3.00;;;;;21.52;44.85;102320.63;5004285;28;51042;-48
2021/10/12 01:29:32;;;;;;;;;2.25;2.25;;;;;21.52;44.63;102308.75;4994931;28;51055;-51
2021/10/12 01:31:57;;;;;;;;;2.00;2.00;;;;;21.51;44.99;102312.56;4995524;28;51075;-50
2021/10/12 01:34:22;;;;;;;;;2.00;2.00;;;;;21.51;45.00;102302.41;5004845;28;50967;-46
2021/10/12 01:36:48;;;;;;;;;2.50;2.50;;;;;21.51;44.64;102298.78;5012995;28;51089;-51
2021/10/12 01:39:16;;;;;;;;;5.25;3.25;;;;;21.51;44.53;102287.75;5016815;28;51175;-51
2021/10/12 01:41:41;;;;;;;;;2.00;2.00;;;;;21.51;45.09;102285.00;4998665;28;51296;-50
2021/10/12 01:44:14;;;;;;;;;1.25;1.25;;;;;21.50;44.96;102277.78;4997996;28;51193;-49
2021/10/12 01:46:40;;;;;;;;;2.00;2.00;;;;;21.51;44.67;102276.72;5013085;28;51330;-48
2021/10/12 01:49:06;;;;;;;;;2.00;2.00;;;;;21.49;45.00;102276.06;4998438;28;51035;-48
2021/10/12 01:51:32;;;;;;;;;3.00;2.00;;;;;21.49;44.61;102276.94;4999662;28;52272;-47
2021/10/12 01:54:00;;;;;;;;;2.25;2.25;;;;;21.48;44.93;102275.22;5010524;28;51116;-46
2021/10/12 01:56:25;;;;;;;;;2.00;2.00;;;;;21.49;44.61;102287.94;5012488;28;51289;-52
2021/10/12 01:58:50;;;;;;;;;4.00;3.00;;;;;21.49;44.60;102287.94;4999708;28;51158;-50
2021/10/12 02:01:24;;;;;;;;;3.00;2.00;;;;;21.48;44.77;102294.53;5014704;28;51174;-45
2021/10/12 02:03:50;;;;;;;;;4.00;2.75;;;;;21.48;44.95;102279.88;5000259;28;51579;-49
2021/10/12 02:06:16;;;;;;;;;1.00;1.00;;;;;21.47;44.64;102284.53;5008753;28;51338;-50
2021/10/12 02:08:41;;;;;;;;;3.75;2.00;;;;;21.47;44.94;102280.94;5009034;28;51206;-50
2021/10/12 02:11:07;;;;;;;;;5.75;2.00;;;;;21.47;44.69;102300.22;5016269;28;51061;-49
2021/10/12 02:13:33;;;;;;;;;3.75;3.00;;;;;21.45;44.77;102286.63;5004523;28;50946;-49
2021/10/12 02:15:58;;;;;;;;;2.50;1.00;;;;;21.47;45.09;102283.69;5008905;28;51269;-51
2021/10/12 02:18:23;;;;;;;;;2.25;2.25;;;;;21.45;45.11;102281.09;5010846;28;51560;-49
2021/10/12 02:20:49;;;;;;;;;2.25;2.25;;;;;21.46;45.01;102282.81;4987115;28;51204;-49
2021/10/12 02:23:15;;;;;;;;;2.75;2.75;;;;;21.46;44.99;102279.19;4992110;28;51945;-47
2021/10/12 02:25:40;;;;;;;;;2.00;1.75;;;;;21.44;44.93;102267.50;5007443;28;51382;-46
2021/10/12 02:28:06;;;;;;;;;3.00;3.00;;;;;21.45;45.00;102256.28;5002476;28;51120;-47
2021/10/12 02:30:31;;;;;;;;;1.00;1.00;;;;;21.45;44.64;102241.66;5007332;28;51029;-50
2021/10/12 02:32:56;;;;;;;;;3.00;2.00;;;;;21.44;44.62;102245.47;5009684;28;51984;-48
2021/10/12 02:35:22;;;;;;;;;3.50;2.50;;;;;21.43;44.96;102247.38;5011921;28;51191;-45
2021/10/12 02:37:47;;;;;;;;;1.75;1.75;;;;;21.43;44.95;102261.16;5016423;28;51236;-49
2021/10/12 02:40:13;;;;;;;;;1.50;1.50;;;;;21.45;45.13;102267.31;5017135;28;51243;-50
2021/10/12 02:42:38;;;;;;;;;1.00;1.00;;;;;21.43;44.96;102274.94;5015996;28;51727;-50
2021/10/12 02:45:04;;;;;;;;;3.00;2.75;;;;;21.43;44.56;102260.28;5001342;28;51309;-48
2021/10/12 02:47:32;;;;;;;;;3.00;2.00;;;;;21.44;45.16;102267.50;5003744;28;51078;-52
2021/10/12 02:49:58;;;;;;;;;2.00;1.00;;;;;21.43;44.88;102260.28;5013293;28;51066;-47
2021/10/12 02:52:23;;;;;;;;;1.00;1.00;;;;;21.43;44.62;102249.28;4992891;28;54517;-48
2021/10/12 02:54:48;;;;;;;;;2.00;1.75;;;;;21.42;44.58;102242.06;5013995;28;51078;-47
2021/10/12 02:57:14;;;;;;;;;4.50;2.00;;;;;21.43;45.05;102254.78;5014216;28;50987;-50
2021/10/12 02:59:39;;;;;;;;;3.50;2.00;;;;;21.42;44.54;102253.06;5009989;28;51159;-49
2021/10/12 03:02:04;;;;;;;;;1.00;1.00;;;;;21.43;44.67;102257.53;5008299;28;51033;-46
2021/10/12 03:04:30;;;;;;;;;1.00;1.00;;;;;21.42;44.76;102242.91;5006741;28;51390;-47
2021/10/12 03:06:55;;;;;;;;;2.00;2.00;;;;;21.41;44.79;102245.84;5011305;28;51343;-49
2021/10/12 03:09:20;;;;;;;;;2.75;1.25;;;;;21.41;44.92;102251.38;4997353;28;50978;-48
2021/10/12 03:11:46;;;;;;;;;1.75;1.50;;;;;21.41;44.52;102251.38;5015591;28;51613;-49
2021/10/12 03:14:11;;;;;;;;;2.00;2.00;;;;;21.40;45.08;102250.53;5015395;28;51144;-47
2021/10/12 03:16:36;;;;;;;;;1.00;1.00;;;;;21.40;44.81;102267.06;5012214;28;51229;-43
2021/10/12 03:19:02;;;;;;;;;1.25;1.00;;;;;21.40;44.59;102253.28;4997100;28;51399;-48
2021/10/12 03:21:33;;;;;;;;;5.25;2.50;;;;;21.40;44.99;102245.00;4998989;28;51986;-45
2021/10/12 03:23:58;;;;;;;;;2.25;2.25;;;;;21.40;44.93;102238.66;5011477;28;51415;-49
2021/10/12 03:26:24;;;;;;;;;2.00;2.00;;;;;21.39;44.78;102232.28;5011034;28;51390;-45
2021/10/12 03:28:49;;;;;;;;;2.00;2.00;;;;;21.39;44.99;102225.91;5007112;28;51413;-49
2021/10/12 03:31:14;;;;;;;;;1.00;1.00;;;;;21.38;44.94;102213.19;5009136;28;51108;-46
2021/10/12 03:33:40;;;;;;;;;1.00;1.00;;;;;21.38;45.02;102225.06;5005601;28;51289;-49
2021/10/12 03:36:15;;;;;;;;;4.00;2.50;;;;;21.37;45.10;102215.09;5005457;28;51086;-50
2021/10/12 03:38:41;;;;;;;;;3.25;1.00;;;;;21.38;44.65;102230.56;4996742;28;51314;-46
2021/10/12 03:41:06;;;;;;;;;2.25;2.25;;;;;21.37;45.06;102223.34;4998269;28;51993;-50
2021/10/12 03:43:31;;;;;;;;;2.75;2.00;;;;;21.37;44.64;102225.25;5012999;28;51027;-47
2021/10/12 03:45:57;;;;;;;;;2.25;1.00;;;;;21.37;44.87;102228.03;5015148;28;51235;-47
2021/10/12 03:48:22;;;;;;;;;1.00;1.00;;;;;21.36;45.11;102223.53;5015507;28;51036;-49
2021/10/12 03:50:47;;;;;;;;;1.50;1.00;;;;;21.37;44.53;102230.78;5012898;28;51055;-49
2021/10/12 03:53:13;;;;;;;;;3.00;1.50;;;;;21.37;45.06;102228.03;5007466;28;51169;-48
2021/10/12 03:55:38;;;;;;;;;0.75;0.75;;;;;21.37;44.59;102214.22;5005970;28;51394;-45
2021/10/12 03:58:03;;;;;;;;;2.50;1.00;;;;;21.36;45.22;102220.75;5013844;28;51101;-51
2021/10/12 04:00:29;;;;;;;;;3.00;2.25;;;;;21.35;45.14;102227.34;5005667;28;51846;-46
2021/10/12 04:02:54;;;;;;;;;1.25;1.25;;;;;21.36;45.07;102220.75;4985930;28;51171;-52
2021/10/12 04:05:20;;;;;;;;;1.00;1.00;;;;;21.35;44.72;102219.06;5003047;28;51079;-50
2021/10/12 04:07:47;;;;;;;;;2.75;2.25;;;;;21.35;44.69;102219.06;5006900;28;51186;-47
2021/10/12 04:10:12;;;;;;;;;1.50;1.50;;;;;21.33;44.73;102214.59;4997145;28;51864;-49
2021/10/12 04:12:38;;;;;;;;;1.50;1.50;;;;;21.34;44.72;102212.69;5012338;28;51130;-48
2021/10/12 04:15:04;;;;;;;;;2.00;1.00;;;;;21.33;45.15;102214.59;5014309;28;51173;-50
2021/10/12 04:17:29;;;;;;;;;1.75;1.75;;;;;21.33;45.20;102217.34;5002949;28;51111;-49
2021/10/12 04:19:54;;;;;;;;;2.00;2.00;;;;;21.34;44.97;102201.66;4994373;28;51742;-45
2021/10/12 04:22:20;;;;;;;;;1.75;1.50;;;;;21.34;44.83;102204.44;5004576;28;51132;-45
2021/10/12 04:24:45;;;;;;;;;1.25;1.00;;;;;21.33;44.69;102214.59;4995962;28;51175;-48
2021/10/12 04:27:10;;;;;;;;;0.50;0.50;;;;;21.33;45.11;102213.75;5001801;28;51150;-46
2021/10/12 04:29:36;;;;;;;;;2.00;1.00;;;;;21.32;45.24;102210.13;4996177;28;51879;-46
2021/10/12 04:32:03;;;;;;;;;1.00;1.00;;;;;21.31;45.20;102222.22;4978354;28;51164;-45
2021/10/12 04:34:28;;;;;;;;;0.75;0.75;;;;;21.31;44.98;102224.97;4995726;28;51194;-50
2021/10/12 04:36:57;;;;;;;;;1.00;1.00;;;;;21.31;44.78;102224.97;4997440;28;51149;-47
2021/10/12 04:39:23;;;;;;;;;2.00;1.00;;;;;21.30;44.86;102212.25;5006440;28;50959;-47
2021/10/12 04:41:49;;;;;;;;;1.25;1.25;;;;;21.31;45.22;102219.47;4996041;28;50926;-50
2021/10/12 04:44:15;;;;;;;;;3.50;1.00;;;;;21.30;45.27;102212.25;4995865;28;51070;-50
2021/10/12 04:46:41;;;;;;;;;0.75;0.50;;;;;21.30;44.81;102208.63;4996111;28;51213;-50
2021/10/12 04:49:06;;;;;;;;;1.00;1.00;;;;;21.30;45.21;102212.25;5004459;28;51979;-49
2021/10/12 04:51:32;;;;;;;;;1.25;1.25;;;;;21.29;45.15;102202.28;5000296;28;51388;-51
2021/10/12 04:53:58;;;;;;;;;1.00;1.00;;;;;21.30;44.72;102214.16;4995641;28;51102;-50
2021/10/12 04:56:23;;;;;;;;;2.25;2.25;;;;;21.30;45.21;102220.50;4995850;28;51284;-47
2021/10/12 04:58:48;;;;;;;;;1.00;1.00;;;;;21.30;45.22;102216.91;5003197;28;51153;-48
2021/10/12 05:01:14;;;;;;;;;1.25;1.00;;;;;21.30;45.03;102223.28;5007912;28;51090;-47
2021/10/12 05:03:39;;;;;;;;;1.00;1.00;;;;;21.30;44.96;102219.66;4995419;28;51059;-52
2021/10/12 05:06:04;;;;;;;;;1.50;1.50;;;;;21.30;44.83;102212.25;5009004;28;51458;-47
2021/10/12 05:08:30;;;;;;;;;2.25;1.75;;;;;21.30;44.71;102211.38;4998943;28;51050;-48
2021/10/12 05:10:56;;;;;;;;;1.00;1.00;;;;;21.31;45.22;102213.09;5001660;28;51375;-46
2021/10/12 05:13:21;;;;;;;;;4.00;2.75;;;;;21.33;45.31;102213.75;5008741;28;51504;-45
2021/10/12 05:15:48;;;;;;;;;1.75;1.50;;;;;21.32;45.06;102217.56;5004281;28;51174;-47
2021/10/12 05:18:20;;;;;;;;;3.75;1.75;;;;;21.31;44.83;102219.47;5014947;28;52014;-49
2021/10/12 05:20:46;;;;;;;;;1.00;1.00;;;;;21.31;45.19;102213.09;5008223;28;51234;-49
2021/10/12 05:23:13;;;;;;;;;1.75;0.75;;;;;21.31;45.03;102199.31;5007995;28;51077;-52
2021/10/12 05:25:38;;;;;;;;;0.50;0.50;;;;;21.30;45.26;102194.84;5011420;28;51165;-49
2021/10/12 05:28:04;;;;;;;;;1.50;1.50;;;;;21.29;45.26;102198.66;5016373;28;51086;-51
2021/10/12 05:30:30;;;;;;;;;2.00;2.00;;;;;21.29;45.06;102202.28;5001956;28;51080;-50
2021/10/12 05:32:55;;;;;;;;;1.00;1.00;;;;;21.29;44.83;102204.19;5004096;28;51258;-50
2021/10/12 05:35:20;;;;;;;;;4.25;2.50;;;;;21.28;45.30;102203.31;5006150;28;51914;-45
2021/10/12 05:37:46;;;;;;;;;3.50;1.25;;;;;21.28;45.30;102192.28;5007853;28;51892;-47
2021/10/12 05:40:12;;;;;;;;;1.50;1.00;;;;;21.28;45.07;102205.22;5005673;28;52543;-47
2021/10/12 05:42:37;;;;;;;;;2.25;2.25;;;;;21.29;45.16;102202.28;5008865;28;51350;-53
2021/10/12 05:45:03;;;;;;;;;2.25;2.00;;;;;21.29;45.40;102205.03;5015800;28;51110;-53
2021/10/12 05:47:28;;;;;;;;;3.75;2.00;;;;;21.31;45.33;102200.16;5013684;28;51735;-57
2021/10/12 05:49:53;;;;;;;;;2.50;1.00;;;;;21.32;44.98;102192.75;5017588;28;51388;-50
2021/10/12 05:52:21;;;;;;;;;3.00;2.00;;;;;21.32;44.66;102199.13;5005955;28;51509;-50
2021/10/12 05:54:52;;;;;;;;;2.75;1.50;;;;;21.32;45.16;102195.50;4988569;28;51156;-50
2021/10/12 05:57:34;;;;;;;;;4.75;2.50;;;;;21.33;44.94;102202.72;5009429;28;52154;-47
2021/10/12 05:59:59;;;;;;;;;3.00;2.00;;;;;21.31;45.00;102200.16;5004620;28;51354;-51
2021/10/12 06:02:24;;;;;;;;;3.50;3.50;;;;;21.32;44.61;102201.88;5010541;28;51226;-50
2021/10/12 06:04:50;;;;;;;;;4.00;4.00;;;;;21.32;44.85;102199.13;5005924;28;51174;-51
2021/10/12 06:07:15;;;;;;;;;4.25;3.00;;;;;21.33;45.21;102205.47;5002717;28;51669;-50
2021/10/12 06:09:40;;;;;;;;;6.00;3.75;;;;;21.33;44.92;102198.06;5006647;28;51235;-49
2021/10/12 06:12:06;;;;;;;;;3.50;3.00;;;;;21.34;45.58;102196.16;5008801;28;51144;-51
2021/10/12 06:14:31;;;;;;;;;4.75;3.00;;;;;21.36;45.51;102198.72;5010078;28;51290;-53
2021/10/12 06:16:56;;;;;;;;;2.75;2.75;;;;;21.36;45.02;102190.44;5013953;28;51968;-52
2021/10/12 06:19:22;;;;;;;;;5.00;3.00;;;;;21.37;45.03;102194.94;5014401;28;51081;-52
2021/10/12 06:21:47;;;;;;;;;5.75;4.75;;;;;21.36;45.41;102198.72;5011924;28;51062;-53
2021/10/12 06:24:12;;;;;;;;;5.00;3.00;;;;;21.36;45.55;102194.06;5002904;28;51236;-54
2021/10/12 06:26:39;;;;;;;;;6.50;3.50;;;;;21.38;45.75;102191.13;5003865;28;51136;-50
2021/10/12 06:29:04;;;;;;;;;3.00;2.00;;;;;21.37;45.73;102201.31;5010969;28;51239;-52
2021/10/12 06:31:31;;;;;;;;;6.50;2.75;;;;;21.38;45.64;102208.53;5007535;28;51213;-53
2021/10/12 06:33:56;;;;;;;;;3.75;3.00;;;;;21.38;45.36;102199.41;5007358;28;51410;-49
2021/10/12 06:36:22;;;;;;;;;3.00;3.00;;;;;21.39;45.71;102203.84;5007560;28;51699;-52
2021/10/12 06:38:47;;;;;;;;;2.00;1.50;;;;;21.39;45.32;102201.94;5007271;28;52872;-53
2021/10/12 06:41:12;;;;;;;;;2.00;2.00;;;;;21.40;45.46;102200.06;5004365;28;51003;-50
2021/10/12 06:43:38;;;;;;;;;4.50;3.00;;;;;21.40;45.32;102202.81;5011968;28;51311;-52
2021/10/12 06:46:03;;;;;;;;;6.50;2.50;;;;;21.41;45.20;102204.50;5012232;28;51969;-50
2021/10/12 06:48:28;;;;;;;;;5.00;3.50;;;;;21.41;45.40;102201.75;4994527;28;51272;-53
2021/10/12 06:50:54;;;;;;;;;3.50;3.50;;;;;21.42;45.66;102207.06;5005445;28;51130;-50
2021/10/12 06:53:19;;;;;;;;;7.00;2.00;;;;;21.43;45.28;102210.69;5008742;28;51294;-51
2021/10/12 06:55:44;;;;;;;;;3.50;3.50;;;;;21.42;45.34;102208.97;5003045;28;51282;-54
2021/10/12 06:58:10;;;;;;;;;6.00;3.00;;;;;21.44;45.40;102215.13;5012171;28;51213;-51
2021/10/12 07:00:36;;;;;;;;;4.50;4.50;;;;;21.44;45.36;102212.38;4998807;28;51128;-52
2021/10/12 07:03:01;;;;;;;;;3.75;2.50;;;;;21.44;45.38;102213.22;4996944;28;51050;-52
2021/10/12 07:05:26;;;;;;;;;5.50;3.25;;;;;21.43;44.98;102211.53;4996522;28;51889;-50
2021/10/12 07:07:52;;;;;;;;;4.50;3.00;;;;;21.42;44.78;102206.22;4997142;28;51295;-52
2021/10/12 07:10:17;;;;;;;;;4.25;3.00;;;;;21.41;44.75;102208.13;4996820;28;51237;-49
2021/10/12 07:12:43;;;;;;;;;3.25;3.25;;;;;21.40;44.72;102194.53;4997114;28;51138;-50
2021/10/12 07:15:09;;;;;;;;;5.00;3.50;;;;;21.39;44.84;102201.94;4996564;28;52807;-52
2021/10/12 07:17:35;;;;;;;;;6.25;4.25;;;;;21.39;44.98;102190.06;4996791;28;51252;-52
2021/10/12 07:20:00;;;;;;;;;4.25;4.25;;;;;21.38;44.46;102185.63;4996538;28;51234;-50
2021/10/12 07:22:26;;;;;;;;;5.75;4.00;;;;;21.37;44.50;102184.75;4996960;28;51159;-51
2021/10/12 07:24:53;;;;;;;;;6.25;5.75;;;;;21.37;44.90;102187.53;4996260;28;51779;-51
2021/10/12 07:27:19;;;;;;;;;5.00;4.50;;;;;21.37;44.25;102182.00;5008898;28;51336;-50
2021/10/12 07:29:46;;;;;;;;;7.25;5.75;;;;;21.37;44.88;102189.44;5016283;28;51671;-51
2021/10/12 07:32:13;;;;;;;;;11.25;6.00;;;;;21.36;44.68;102184.94;4998644;28;51218;-52
2021/10/12 07:34:38;;;;;;;;;7.00;6.50;;;;;21.34;44.20;102187.88;5016153;28;51102;-49
2021/10/12 07:37:03;;;;;;;;;16.00;9.50;;;;;21.33;44.51;102172.41;5016377;28;51029;-49
2021/10/12 07:39:29;;;;;;;;;24.25;23.25;;;;;21.32;43.99;102171.56;5016211;28;51147;-52
2021/10/12 07:41:54;;;;;;;;;18.50;14.25;;;;;21.33;44.00;102177.91;5015917;28;50988;-48
2021/10/12 07:44:19;;;;;;;;;19.75;17.75;;;;;21.31;44.11;102186.38;5015581;28;51921;-50
2021/10/12 07:46:45;;;;;;;;;23.00;19.50;;;;;21.30;43.74;102192.94;5016223;28;51114;-47
2021/10/12 07:49:10;;;;;;;;;22.25;19.25;;;;;21.28;43.41;102189.53;5015537;28;50947;-52
2021/10/12 07:51:35;;;;;;;;;39.00;32.50;;;;;21.26;42.78;102188.03;4998054;28;50986;-51
2021/10/12 07:54:02;;;;;;;;;27.50;20.75;;;;;21.23;43.12;102183.72;5015331;28;51806;-51
2021/10/12 07:56:36;;;;;;;;;28.75;23.75;;;;;21.22;42.74;102176.50;5015421;28;51283;-53
2021/10/12 07:59:07;;;;;;;;;23.75;20.75;;;;;21.21;43.17;102193.22;5014488;28;51083;-50
2021/10/12 08:01:34;;;;;;;;;25.00;21.00;;;;;21.19;43.08;102179.66;5016138;28;51125;-50
2021/10/12 08:04:03;;;;;;;;;21.50;14.25;;;;;21.19;43.18;102179.66;5015643;28;52104;-53
2021/10/12 08:06:28;;;;;;;;;22.25;19.00;;;;;21.18;43.32;102183.47;5015842;28;50930;-52
2021/10/12 08:08:54;;;;;;;;;22.00;18.25;;;;;21.19;42.93;102173.28;5015918;28;51050;-51
2021/10/12 08:11:24;;;;;;;;;15.25;15.25;;;;;21.18;43.01;102180.72;5015846;28;51054;-53
2021/10/12 08:13:53;;;;;;;;;17.50;14.00;;;;;21.18;43.46;102174.34;5015415;28;51835;-53
2021/10/12 08:16:23;;;;;;;;;20.00;15.25;;;;;21.18;43.45;102174.34;5015720;28;50903;-52
2021/10/12 08:18:48;;;;;;;;;21.00;17.00;;;;;21.17;43.09;102167.13;5015343;28;51061;-51
2021/10/12 08:21:14;;;;;;;;;14.00;12.25;;;;;21.16;42.89;102163.53;5014981;28;50972;-51
2021/10/12 08:23:39;;;;;;;;;19.25;14.50;;;;;21.17;43.62;102175.41;5015570;28;50967;-49
2021/10/12 08:26:04;;;;;;;;;14.75;13.50;;;;;21.17;43.31;102178.16;5013053;28;51011;-51
2021/10/12 08:28:30;;;;;;;;;15.25;9.75;;;;;21.17;43.65;102175.41;4995819;28;51127;-50
2021/10/12 08:30:55;;;;;;;;;9.50;9.25;;;;;21.17;43.15;102175.41;4996094;28;51347;-52
2021/10/12 08:33:20;;;;;;;;;10.50;10.25;;;;;21.16;43.21;102171.78;4995199;28;50986;-50
2021/10/12 08:35:46;;;;;;;;;10.00;9.00;;;;;21.16;43.39;102165.44;4995481;28;51106;-53
2021/10/12 08:38:16;;;;;;;;;15.00;10.75;;;;;21.16;43.75;102170.94;4995798;28;51019;-50
2021/10/12 08:40:44;;;;;;;;;14.75;11.00;;;;;21.16;43.90;102154.41;4995822;28;51046;-53
2021/10/12 08:43:09;;;;;;;;;14.50;13.25;;;;;21.16;43.50;102155.25;4994737;28;51035;-53
2021/10/12 08:45:37;;;;;;;;;11.25;9.00;;;;;21.16;43.64;102155.25;4994853;28;50987;-53
2021/10/12 08:48:05;;;;;;;;;12.25;8.75;;;;;21.17;44.12;102150.59;4995198;28;50941;-53
2021/10/12 08:50:31;;;;;;;;;11.75;8.50;;;;;21.17;43.79;102147.84;4995780;28;51274;-53
2021/10/12 08:52:56;;;;;;;;;13.00;9.25;;;;;21.18;44.11;102142.13;4994997;28;51952;-50
2021/10/12 08:55:21;;;;;;;;;8.25;6.50;;;;;21.19;43.83;102143.84;4995567;28;51154;-49
2021/10/12 08:57:47;;;;;;;;;7.50;7.00;;;;;21.21;44.39;102140.88;4995475;28;51209;-51
2021/10/12 09:00:15;;;;;;;;;8.00;6.00;;;;;21.24;44.01;102140.47;4995591;28;51435;-53
2021/10/12 09:05:58;;;;;;;;;12.25;10.00;;;;;21.30;44.36;102134.22;4995386;28;51129;-54
2021/10/12 09:08:35;;;;;;;;;9.25;7.00;;;;;21.32;44.03;102132.13;4995397;28;51073;-53
2021/10/12 09:11:01;;;;;;;;;7.25;7.25;;;;;21.32;44.39;102135.72;4995461;28;51203;-53
2021/10/12 09:13:27;;;;;;;;;8.00;7.25;;;;;21.36;44.74;102129.81;4995462;28;51617;-56
2021/10/12 09:16:03;;;;;;;;;7.75;6.00;;;;;21.37;44.70;102124.13;4995407;28;51086;-54
2021/10/12 09:18:47;;;;;;;;;8.75;6.00;;;;;21.39;44.27;102124.78;4995120;28;51043;-53
2021/10/12 09:21:17;;;;;;;;;11.50;7.00;;;;;21.40;44.37;102111.84;4995472;28;51047;-53
2021/10/12 09:23:42;;;;;;;;;8.00;7.25;;;;;21.43;44.70;102114.19;4994935;28;52190;-53
2021/10/12 09:26:28;;;;;;;;;9.75;7.00;;;;;21.47;44.29;102121.03;4997920;28;50901;-53
2021/10/12 09:28:58;;;;;;;;;5.75;5.25;;;;;21.49;44.41;102116.16;4998671;28;51114;-51
2021/10/12 09:31:36;;;;;;;;;8.00;6.25;;;;;21.52;44.79;102118.53;5014933;28;51111;-51
2021/10/12 09:34:03;;;;;;;;;11.25;8.25;;;;;21.54;44.73;102125.53;5014638;28;51018;-52
2021/10/12 09:36:30;;;;;;;;;7.00;6.25;;;;;21.57;44.71;102110.50;5014669;28;51262;-50
2021/10/12 09:38:56;;;;;;;;;8.50;6.50;;;;;21.59;44.80;102109.25;5014664;28;51198;-51
2021/10/12 09:41:26;;;;;;;;;11.25;6.00;;;;;21.63;44.70;102111.63;5014699;28;51427;-51
2021/10/12 09:44:04;;;;;;;;;5.75;5.75;;;;;21.65;44.80;102106.75;5013989;28;51932;-48
2021/10/12 09:46:31;;;;;;;;;8.25;6.75;;;;;21.68;44.70;102109.13;5014793;28;50967;-54
2021/10/12 09:49:23;;;;;;;;;8.00;5.50;;;;;21.72;44.35;102104.91;5014764;28;51509;-49
2021/10/12 09:52:01;;;;;;;;;6.50;6.00;;;;;21.74;44.62;102114.66;5014558;28;51316;-51
2021/10/12 09:54:29;;;;;;;;;6.50;5.25;;;;;21.76;44.73;102107.03;5014001;28;51105;-50
2021/10/12 09:57:00;;;;;;;;;6.25;6.25;;;;;21.77;44.25;102117.03;5017590;28;50983;-50
2021/10/12 09:59:26;;;;;;;;;8.75;7.00;;;;;21.79;44.53;102112.19;5017384;28;51173;-51
2021/10/12 10:01:54;;;;;;;;;6.00;5.25;;;;;21.81;44.15;102114.72;5018001;28;51001;-51
2021/10/12 10:04:20;;;;;;;;;10.50;7.75;;;;;21.82;44.32;102105.41;5017504;28;51667;-51
2021/10/12 10:06:48;;;;;;;;;7.00;5.50;;;;;21.84;44.52;102106.91;5017695;28;51115;-51
2021/10/12 10:09:15;;;;;;;;;7.25;6.00;;;;;21.87;43.98;102100.97;5017400;28;51185;-50
2021/10/12 10:11:43;;;;;;;;;9.25;6.75;;;;;21.89;43.95;102107.16;5017633;28;51019;-51
2021/10/12 10:14:11;;;;;;;;;6.00;6.00;;;;;21.93;44.06;102092.94;5017307;28;51096;-52
2021/10/12 10:16:43;;;;;;;;;8.75;5.75;;;;;21.94;43.83;102098.28;5017446;28;51479;-52
2021/10/12 10:19:13;;;;;;;;;8.00;7.00;;;;;21.98;44.04;102090.44;5016961;28;51019;-51
2021/10/12 10:21:46;;;;;;;;;7.00;5.50;;;;;22.00;44.42;102096.63;5017300;28;51098;-51
2021/10/12 10:24:13;;;;;;;;;5.50;5.25;;;;;22.01;44.00;102092.81;5016626;28;51154;-50
2021/10/12 10:26:40;;;;;;;;;8.75;7.00;;;;;22.04;43.83;102086.88;5010264;28;51285;-51
2021/10/12 10:29:27;;;;;;;;;8.00;6.00;;;;;22.05;44.28;102083.06;4997252;28;50979;-52
2021/10/12 10:32:00;;;;;;;;;7.00;6.00;;;;;22.05;44.38;102089.41;4997720;28;51383;-51
2021/10/12 10:34:40;;;;;;;;;6.00;5.25;;;;;22.05;43.92;102077.53;4997449;28;51746;-52
2021/10/12 10:37:17;;;;;;;;;7.00;5.75;;;;;22.06;44.17;102070.97;4997226;28;51333;-51
2021/10/12 10:40:10;;;;;;;;;8.50;8.50;;;;;22.06;43.74;102070.97;4997359;28;51045;-51
2021/10/12 10:42:41;;;;;;;;;5.50;5.50;;;;;22.07;44.17;102067.16;4966846;28;51626;-52
2021/10/12 10:45:09;;;;;;;;;6.00;6.00;;;;;22.07;44.08;102061.66;4996680;28;51123;-52
2021/10/12 10:47:41;;;;;;;;;9.25;6.50;;;;;22.07;43.76;102054.22;4996739;28;51265;-52
2021/10/12 10:50:14;;;;;;;;;6.75;5.25;;;;;22.07;44.24;102053.38;4996055;28;51046;-53
2021/10/12 10:53:00;;;;;;;;;7.00;7.00;;;;;22.08;44.07;102060.59;4996466;28;51251;-52
2021/10/12 10:55:30;;;;;;;;;8.25;8.00;;;;;22.08;43.91;102053.16;4996187;28;51122;-53
2021/10/12 10:58:13;;;;;;;;;10.50;7.00;;;;;22.08;44.21;102055.06;4996228;28;51440;-52
2021/10/12 11:00:45;;;;;;;;;6.25;5.25;;;;;22.09;43.72;102056.78;4996615;28;50964;-51
2021/10/12 11:03:25;;;;;;;;;8.00;7.00;;;;;22.10;44.30;102050.22;4997164;28;51056;-53
2021/10/12 11:05:52;;;;;;;;;6.00;6.00;;;;;22.10;44.19;102048.31;4996518;28;51032;-51
2021/10/12 11:08:29;;;;;;;;;8.75;6.25;;;;;22.10;44.16;102042.81;4996054;28;50953;-53
2021/10/12 11:11:02;;;;;;;;;7.25;7.25;;;;;22.10;44.21;102039.19;4996588;28;51042;-53
2021/10/12 11:13:28;;;;;;;;;6.50;6.50;;;;;22.10;43.80;102041.94;4996638;28;50990;-53
2021/10/12 11:15:54;;;;;;;;;9.00;7.50;;;;;22.08;44.08;102036.59;4996546;28;52092;-52
2021/10/12 11:18:20;;;;;;;;;7.00;7.00;;;;;22.08;44.35;102042.13;4996464;28;51012;-53
2021/10/12 11:20:51;;;;;;;;;8.75;8.00;;;;;22.08;43.81;102038.53;4996756;28;51104;-49
2021/10/12 11:23:28;;;;;;;;;6.50;5.00;;;;;22.08;43.57;102036.59;4996738;28;51104;-52
2021/10/12 11:26:13;;;;;;;;;6.25;4.75;;;;;22.08;43.72;102030.25;4996661;28;52197;-51
2021/10/12 11:28:43;;;;;;;;;6.50;6.00;;;;;22.07;43.82;102028.53;5016011;28;51417;-51